createdAt,value
2022-12-22T00:02:45.085Z,6.40
2022-12-22T00:05:42.200Z,6.40
2022-12-22T00:08:28.103Z,6.40
2022-12-22T00:11:14.869Z,6.40
2022-12-22T00:14:02.135Z,6.40
2022-12-22T00:16:55.176Z,6.40
2022-12-22T00:19:40.617Z,6.40
2022-12-22T00:22:44.643Z,6.40
2022-12-22T00:25:35.183Z,6.50
2022-12-22T00:28:22.622Z,6.40
2022-12-22T00:31:08.124Z,6.40
2022-12-22T00:33:53.465Z,6.50
2022-12-22T00:36:40.822Z,6.50
2022-12-22T00:39:31.403Z,6.50
2022-12-22T00:42:16.679Z,6.50
2022-12-22T00:45:02.092Z,6.50
2022-12-22T00:47:49.080Z,6.50
2022-12-22T00:50:34.794Z,6.50
2022-12-22T00:53:20.722Z,6.50
2022-12-22T00:56:06.092Z,6.50
2022-12-22T00:58:51.275Z,6.50
2022-12-22T01:01:37.138Z,6.50
2022-12-22T01:04:22.530Z,6.50
2022-12-22T01:07:07.903Z,6.50
2022-12-22T01:09:53.647Z,6.50
2022-12-22T01:12:41.881Z,6.50
2022-12-22T01:15:32.313Z,6.60
2022-12-22T01:18:17.951Z,6.60
2022-12-22T01:21:03.087Z,6.60
2022-12-22T01:23:48.460Z,6.60
2022-12-22T01:26:33.844Z,6.60
2022-12-22T01:29:19.192Z,6.60
2022-12-22T01:32:04.661Z,6.60
2022-12-22T01:34:50.062Z,6.70
2022-12-22T01:37:35.491Z,6.70
2022-12-22T01:40:20.778Z,6.70
2022-12-22T01:43:06.093Z,6.70
2022-12-22T01:45:55.128Z,6.70
2022-12-22T01:48:45.488Z,6.70
2022-12-22T01:51:37.599Z,6.70
2022-12-22T01:54:22.905Z,6.70
2022-12-22T01:57:08.350Z,6.70
2022-12-22T01:59:53.538Z,6.70
2022-12-22T02:02:39.966Z,6.70
2022-12-22T02:05:26.408Z,6.70
2022-12-22T02:08:24.252Z,6.70
2022-12-22T02:14:43.749Z,6.70
2022-12-22T02:17:53.257Z,6.70
2022-12-22T02:20:38.479Z,6.70
2022-12-22T02:23:32.761Z,6.70
2022-12-22T02:26:38.684Z,6.70
2022-12-22T02:29:25.099Z,6.70
2022-12-22T02:32:10.837Z,6.70
2022-12-22T02:34:57.128Z,6.70
2022-12-22T02:37:48.659Z,6.70
2022-12-22T02:40:42.638Z,6.70
2022-12-22T02:43:45.749Z,6.70
2022-12-22T02:46:36.898Z,6.70
2022-12-22T02:49:34.991Z,6.70
2022-12-22T02:52:35.585Z,6.70
2022-12-22T02:55:21.990Z,6.70
2022-12-22T02:58:10.823Z,6.70
2022-12-22T03:00:57.657Z,6.70
2022-12-22T03:03:43.309Z,6.70
2022-12-22T03:06:28.638Z,6.70
2022-12-22T03:09:14.019Z,6.70
2022-12-22T03:11:59.307Z,6.70
2022-12-22T03:14:44.593Z,6.70
2022-12-22T03:17:29.974Z,6.70
2022-12-22T03:20:15.277Z,6.70
2022-12-22T03:23:00.668Z,6.70
2022-12-22T03:25:46.008Z,6.70
2022-12-22T03:28:12.853Z,6.70
2022-12-22T03:30:39.745Z,6.80
2022-12-22T03:33:06.580Z,6.70
2022-12-22T03:35:33.475Z,6.70
2022-12-22T03:38:03.622Z,6.70
2022-12-22T03:40:31.653Z,6.70
2022-12-22T03:43:17.018Z,6.70
2022-12-22T03:46:02.420Z,6.70
2022-12-22T03:48:29.248Z,6.70
2022-12-22T03:50:56.004Z,6.70
2022-12-22T03:53:22.763Z,6.70
2022-12-22T03:55:49.563Z,6.80
2022-12-22T03:58:16.369Z,6.80
2022-12-22T04:00:43.217Z,6.80
2022-12-22T04:03:10.115Z,6.70
2022-12-22T04:05:37.089Z,6.80
2022-12-22T04:08:04.078Z,6.80
2022-12-22T04:10:49.320Z,6.80
2022-12-22T04:13:16.100Z,6.80
2022-12-22T04:15:42.875Z,6.80
2022-12-22T04:18:09.634Z,6.80
2022-12-22T04:20:36.361Z,6.80
2022-12-22T04:23:03.413Z,6.80
2022-12-22T04:25:30.203Z,6.80
2022-12-22T04:27:56.944Z,6.80
2022-12-22T04:30:23.801Z,6.80
2022-12-22T04:32:50.582Z,6.80
2022-12-22T04:35:17.423Z,6.80
2022-12-22T04:37:44.194Z,6.80
2022-12-22T04:40:11.250Z,6.80
2022-12-22T04:42:38.051Z,6.80
2022-12-22T04:45:05.328Z,6.80
2022-12-22T04:47:32.133Z,6.80
2022-12-22T04:49:59.631Z,6.80
2022-12-22T04:52:26.811Z,6.80
2022-12-22T04:54:53.812Z,6.80
2022-12-22T04:57:21.367Z,6.80
2022-12-22T04:59:48.044Z,6.80
2022-12-22T05:02:14.859Z,6.80
2022-12-22T05:04:41.652Z,6.80
2022-12-22T05:07:08.391Z,6.80
2022-12-22T05:09:35.133Z,6.80
2022-12-22T05:12:21.899Z,6.80
2022-12-22T05:14:48.629Z,6.80
2022-12-22T05:17:15.421Z,6.80
2022-12-22T05:19:42.238Z,6.80
2022-12-22T05:22:09.060Z,6.80
2022-12-22T05:24:38.986Z,6.80
2022-12-22T05:27:05.748Z,6.80
2022-12-22T05:29:32.711Z,6.80
2022-12-22T05:31:59.421Z,6.80
2022-12-22T05:34:26.233Z,6.80
2022-12-22T05:36:52.953Z,6.70
2022-12-22T05:39:19.694Z,6.80
2022-12-22T05:41:46.436Z,6.70
2022-12-22T05:44:13.276Z,6.70
2022-12-22T05:46:40.374Z,6.70
2022-12-22T05:49:07.227Z,6.70
2022-12-22T05:51:33.939Z,6.70
2022-12-22T05:54:00.673Z,6.70
2022-12-22T05:56:27.355Z,6.70
2022-12-22T05:58:54.036Z,6.70
2022-12-22T06:01:20.759Z,6.70
2022-12-22T06:03:47.555Z,6.70
2022-12-22T06:06:14.293Z,6.70
2022-12-22T06:08:40.962Z,6.60
2022-12-22T06:11:07.689Z,6.60
2022-12-22T06:13:34.447Z,6.60
2022-12-22T06:16:01.228Z,6.60
2022-12-22T06:18:28.340Z,6.60
2022-12-22T06:20:55.073Z,6.60
2022-12-22T06:23:22.164Z,6.60
2022-12-22T06:26:00.356Z,6.70
2022-12-22T06:28:27.999Z,6.70
2022-12-22T06:30:55.159Z,6.70
2022-12-22T06:33:21.962Z,6.70
2022-12-22T06:35:55.653Z,6.70
2022-12-22T06:38:25.612Z,6.70
2022-12-22T06:40:52.327Z,6.70
2022-12-22T06:43:19.071Z,6.70
2022-12-22T06:45:45.793Z,6.70
2022-12-22T06:48:13.396Z,6.70
2022-12-22T06:50:40.323Z,6.70
2022-12-22T06:53:07.767Z,6.70
2022-12-22T06:55:35.011Z,6.80
2022-12-22T06:58:02.151Z,6.80
2022-12-22T07:00:28.950Z,6.70
2022-12-22T07:02:55.943Z,6.80
2022-12-22T07:05:26.064Z,6.80
2022-12-22T07:07:53.026Z,6.80
2022-12-22T07:10:39.809Z,6.80
2022-12-22T07:13:19.069Z,6.80
2022-12-22T07:15:48.923Z,6.80
2022-12-22T07:18:19.145Z,6.80
2022-12-22T07:20:45.901Z,6.80
2022-12-22T07:23:12.769Z,6.80
2022-12-22T07:25:39.468Z,6.80
2022-12-22T07:28:07.080Z,6.80
2022-12-22T07:30:36.658Z,6.80
2022-12-22T07:33:04.260Z,6.80
2022-12-22T07:35:31.005Z,6.80
2022-12-22T07:37:57.704Z,6.90
2022-12-22T07:40:24.425Z,6.80
2022-12-22T07:42:55.460Z,6.80
2022-12-22T07:45:22.612Z,6.80
2022-12-22T07:47:49.400Z,6.80
2022-12-22T07:50:32.811Z,6.90
2022-12-22T07:53:01.740Z,6.90
2022-12-22T07:55:30.768Z,6.90
2022-12-22T07:57:57.737Z,6.90
2022-12-22T08:00:24.609Z,6.90
2022-12-22T08:02:53.166Z,6.90
2022-12-22T08:05:20.394Z,6.90
2022-12-22T08:07:50.924Z,6.90
2022-12-22T08:10:19.073Z,6.90
2022-12-22T08:12:46.873Z,6.90
2022-12-22T08:15:13.698Z,7.00
2022-12-22T08:17:40.479Z,7.00
2022-12-22T08:20:07.831Z,7.00
2022-12-22T08:22:34.598Z,7.00
2022-12-22T08:25:01.375Z,7.00
2022-12-22T08:27:39.738Z,7.00
2022-12-22T08:30:08.775Z,7.10
2022-12-22T08:32:37.236Z,7.10
2022-12-22T08:35:05.521Z,7.10
2022-12-22T08:37:35.064Z,7.10
2022-12-22T08:40:06.509Z,7.10
2022-12-22T08:42:33.488Z,7.10
2022-12-22T08:45:00.242Z,7.10
2022-12-22T08:47:27.004Z,7.20
2022-12-22T08:49:53.885Z,7.20
2022-12-22T08:52:20.597Z,7.20
2022-12-22T08:54:47.432Z,7.20
2022-12-22T08:57:14.223Z,7.20
2022-12-22T08:59:41.104Z,7.20
2022-12-22T09:02:07.865Z,7.20
2022-12-22T09:04:34.828Z,7.20
2022-12-22T09:07:02.639Z,7.20
2022-12-22T09:09:34.184Z,7.30
2022-12-22T09:12:01.596Z,7.30
2022-12-22T09:14:29.066Z,7.20
2022-12-22T09:16:55.924Z,7.20
2022-12-22T09:19:22.657Z,7.20
2022-12-22T09:21:49.517Z,7.20
2022-12-22T09:24:16.475Z,7.20
2022-12-22T09:26:43.313Z,7.20
2022-12-22T09:29:10.667Z,7.20
2022-12-22T09:31:37.647Z,7.20
2022-12-22T09:34:04.394Z,7.30
2022-12-22T09:36:31.531Z,7.30
2022-12-22T09:38:58.276Z,7.30
2022-12-22T09:41:31.575Z,7.40
2022-12-22T09:44:05.314Z,7.50
2022-12-22T09:46:35.062Z,7.60
2022-12-22T09:49:02.022Z,7.60
2022-12-22T09:51:29.341Z,7.60
2022-12-22T09:54:00.231Z,7.60
2022-12-22T09:56:28.565Z,7.60
2022-12-22T09:58:55.399Z,7.60
2022-12-22T10:01:22.094Z,7.60
2022-12-22T10:04:00.024Z,7.60
2022-12-22T10:06:40.695Z,7.60
2022-12-22T10:09:48.691Z,7.60
2022-12-22T10:12:25.784Z,7.70
2022-12-22T10:14:53.689Z,7.70
2022-12-22T10:17:32.420Z,7.70
2022-12-22T10:20:14.706Z,7.80
2022-12-22T10:22:55.758Z,7.80
2022-12-22T10:25:45.073Z,7.80
2022-12-22T10:28:25.363Z,7.80
2022-12-22T10:31:18.711Z,7.70
2022-12-22T10:33:47.904Z,7.70
2022-12-22T10:36:20.126Z,7.70
2022-12-22T10:39:05.218Z,7.70
2022-12-22T10:41:41.773Z,7.80
2022-12-22T10:44:21.450Z,7.90
2022-12-22T10:46:53.318Z,7.90
2022-12-22T10:49:29.198Z,7.90
2022-12-22T10:52:18.368Z,7.90
2022-12-22T10:54:47.205Z,8.00
2022-12-22T10:57:13.814Z,8.00
2022-12-22T10:59:49.721Z,8.10
2022-12-22T11:02:26.893Z,8.10
2022-12-22T11:05:00.205Z,8.10
2022-12-22T11:07:28.203Z,8.10
2022-12-22T11:09:54.931Z,8.10
2022-12-22T11:12:30.396Z,8.10
2022-12-22T11:15:09.037Z,8.20
2022-12-22T11:18:09.557Z,8.20
2022-12-22T11:21:01.165Z,8.30
2022-12-22T11:23:41.078Z,8.40
2022-12-22T11:26:46.720Z,8.40
2022-12-22T11:29:33.630Z,8.40
2022-12-22T11:32:26.712Z,8.50
2022-12-22T11:35:06.953Z,8.50
2022-12-22T11:37:51.638Z,8.50
2022-12-22T11:40:32.391Z,8.60
2022-12-22T11:43:18.199Z,8.60
2022-12-22T11:45:52.400Z,8.70
2022-12-22T11:48:28.401Z,8.60
2022-12-22T11:51:10.117Z,8.50
2022-12-22T11:54:08.737Z,8.50
2022-12-22T11:56:40.556Z,8.50
2022-12-22T11:59:27.568Z,8.40
2022-12-22T12:02:16.246Z,8.40
2022-12-22T12:05:01.640Z,8.30
2022-12-22T12:07:41.206Z,8.20
2022-12-22T12:10:17.994Z,8.20
2022-12-22T12:13:27.646Z,8.10
2022-12-22T12:16:19.382Z,8.00
2022-12-22T12:19:08.872Z,7.90
2022-12-22T12:21:49.404Z,8.00
2022-12-22T12:24:34.902Z,8.00
2022-12-22T12:27:43.068Z,8.10
2022-12-22T12:33:19.392Z,8.10
2022-12-22T12:35:49.236Z,8.10
2022-12-22T12:39:06.914Z,8.10
2022-12-22T12:41:46.227Z,8.10
2022-12-22T12:44:15.270Z,8.10
2022-12-22T12:46:54.487Z,8.00
2022-12-22T12:49:36.687Z,8.00
2022-12-22T12:52:12.342Z,8.00
2022-12-22T12:54:41.377Z,7.90
2022-12-22T12:57:12.217Z,7.80
2022-12-22T12:59:41.876Z,7.80
2022-12-22T13:02:26.868Z,7.70
2022-12-22T13:05:12.043Z,7.60
2022-12-22T13:08:11.506Z,7.60
2022-12-22T13:10:54.466Z,7.50
2022-12-22T13:13:27.106Z,7.40
2022-12-22T13:16:00.159Z,7.30
2022-12-22T13:18:28.421Z,7.30
2022-12-22T13:21:51.525Z,7.30
2022-12-22T13:24:28.559Z,7.30
2022-12-22T13:27:00.722Z,7.30
2022-12-22T13:29:45.343Z,7.30
2022-12-22T13:32:27.301Z,7.20
2022-12-22T13:35:33.689Z,7.20
2022-12-22T13:38:01.690Z,7.20
2022-12-22T13:40:40.402Z,7.10
2022-12-22T13:43:13.453Z,7.10
2022-12-22T13:45:46.664Z,7.10
2022-12-22T13:48:14.560Z,7.10
2022-12-22T13:50:56.569Z,7.10
2022-12-22T13:56:42.121Z,6.90
2022-12-22T13:59:45.435Z,6.90
2022-12-22T14:02:15.353Z,6.80
2022-12-22T14:04:47.857Z,6.80
2022-12-22T14:07:20.078Z,6.80
2022-12-22T14:09:51.276Z,6.80
2022-12-22T14:12:20.491Z,6.70
2022-12-22T14:14:49.229Z,6.70
2022-12-22T14:17:47.830Z,6.70
2022-12-22T14:20:26.821Z,6.70
2022-12-22T14:22:57.696Z,6.70
2022-12-22T14:25:30.806Z,6.70
2022-12-22T14:27:57.773Z,6.70
2022-12-22T14:30:37.783Z,6.70
2022-12-22T14:33:27.265Z,6.60
2022-12-22T14:36:18.486Z,6.70
2022-12-22T14:38:53.664Z,6.60
2022-12-22T14:41:43.084Z,6.70
2022-12-22T14:44:23.072Z,6.60
2022-12-22T14:47:14.898Z,6.60
2022-12-22T14:49:46.235Z,6.60
2022-12-22T14:52:33.061Z,6.60
2022-12-22T14:55:00.336Z,6.60
2022-12-22T14:57:42.202Z,6.50
2022-12-22T15:00:32.144Z,6.50
2022-12-22T15:03:02.661Z,6.50
2022-12-22T15:05:29.400Z,6.50
2022-12-22T15:08:07.365Z,6.50
2022-12-22T15:10:43.766Z,6.50
2022-12-22T15:13:18.903Z,6.50
2022-12-22T15:15:45.715Z,6.50
2022-12-22T15:18:14.990Z,6.50
2022-12-22T15:20:41.846Z,6.40
2022-12-22T15:23:18.501Z,6.40
2022-12-22T15:25:45.588Z,6.40
2022-12-22T15:28:12.358Z,6.40
2022-12-22T15:30:39.472Z,6.40
2022-12-22T15:33:14.827Z,6.40
2022-12-22T15:35:42.122Z,6.40
2022-12-22T15:38:22.535Z,6.40
2022-12-22T15:40:52.776Z,6.40
2022-12-22T15:43:56.611Z,6.40
2022-12-22T15:46:14.504Z,6.40
2022-12-22T15:48:42.220Z,6.40
2022-12-22T15:51:25.066Z,6.40
2022-12-22T15:53:52.398Z,6.40
2022-12-22T15:56:21.715Z,6.40
2022-12-22T15:58:49.103Z,6.40
2022-12-22T16:01:19.064Z,6.40
2022-12-22T16:03:46.092Z,6.40
2022-12-22T16:06:14.709Z,6.40
2022-12-22T16:08:44.884Z,6.40
2022-12-22T16:11:11.986Z,6.40
2022-12-22T16:13:45.128Z,6.40
2022-12-22T16:16:12.274Z,6.40
2022-12-22T16:18:39.128Z,6.50
2022-12-22T16:21:14.152Z,6.50
2022-12-22T16:23:42.723Z,6.50
2022-12-22T16:26:15.028Z,6.50
2022-12-22T16:28:41.871Z,6.50
2022-12-22T16:31:16.472Z,6.50
2022-12-22T16:33:43.258Z,6.50
2022-12-22T16:36:10.058Z,6.50
2022-12-22T16:38:37.233Z,6.50
2022-12-22T16:41:05.705Z,6.50
2022-12-22T16:46:24.250Z,6.50
2022-12-22T16:48:53.591Z,6.50
2022-12-22T16:51:36.776Z,6.50
2022-12-22T16:54:04.437Z,6.60
2022-12-22T16:56:32.222Z,6.60
2022-12-22T16:59:00.777Z,6.60
2022-12-22T17:01:35.730Z,6.60
2022-12-22T17:04:24.615Z,6.60
2022-12-22T17:06:52.178Z,6.60
2022-12-22T17:09:22.803Z,6.60
2022-12-22T17:11:49.995Z,6.60
2022-12-22T17:14:42.154Z,6.70
2022-12-22T17:17:17.680Z,6.70
2022-12-22T17:19:44.892Z,6.70
2022-12-22T17:22:23.356Z,6.70
2022-12-22T17:24:51.734Z,6.60
2022-12-22T17:27:43.115Z,6.70
2022-12-22T17:30:21.633Z,6.60
2022-12-22T17:32:53.818Z,6.60
2022-12-22T17:35:26.429Z,6.60
2022-12-22T17:37:54.042Z,6.60
2022-12-22T17:40:26.646Z,6.60
2022-12-22T17:42:53.814Z,6.60
2022-12-22T17:45:21.170Z,6.60
2022-12-22T17:47:48.125Z,6.60
2022-12-22T17:50:20.610Z,6.60
2022-12-22T17:52:47.881Z,6.50
2022-12-22T17:56:05.860Z,6.50
2022-12-22T17:58:19.640Z,6.50
2022-12-22T18:00:46.969Z,6.50
2022-12-22T18:03:14.910Z,6.40
2022-12-22T18:05:44.367Z,6.40
2022-12-22T18:08:20.214Z,6.50
2022-12-22T18:10:47.693Z,6.50
2022-12-22T18:13:19.673Z,6.50
2022-12-22T18:15:48.156Z,6.50
